Home   Weather   Denmark   Copenhagen   Past weeks
Flag for Denmark

Past Weather in Copenhagen, Denmark — Yesterday and Last 2 Weeks

Currently: 75 °F. Clear. (Weather station: Koebenhavn-Kastrup Airport, Denmark). See more current weather

Past Weather in Copenhagen — Graph

°F

Copenhagen Temperature Yesterday

Maximum temperature yesterday: 72 °F (at 11:50 am)
Minimum temperature yesterday: 52 °F (at 4:20 am)
Average temperature yesterday: 64 °F

High & Low Weather Summary for the Past Weeks

 TemperatureHumidityPressure
High77 °F (Jul 20, 3:20 pm)100% (Jul 6, 4:50 am)30.18 "Hg (Jul 6, 4:50 am)
Low52 °F (Jul 6, 2:50 am)44% (Jul 20, 2:20 pm)29.42 "Hg (Jul 6, 7:50 pm)
Average64 °F77%29.93 "Hg
* Reported Jul 5 5:20 pm — Jul 20 5:20 pm, Copenhagen. Weather by CustomWeather, © 2024

Note: Actual official high and low records may vary slightly from our data, if they occured in-between our weather recording intervals... More about our weather records

Copenhagen Weather History for the Previous 24 Hours

Scroll right to see more
 ConditionsComfort  
Time TempWeatherWind HumidityBarometerVisibility
5:20 pm
Sat, Jul 20
75 °FClear.5 mph44%29.92 "HgN/A
4:50 pm75 °FClear.5 mph47%29.92 "HgN/A
4:20 pm75 °FClear.5 mph47%29.95 "HgN/A
3:50 pm75 °FClear.6 mph47%29.95 "HgN/A
3:20 pm77 °FClear.6 mph51%29.95 "HgN/A
2:50 pm75 °FClear.5 mph47%29.95 "HgN/A
2:20 pm75 °FClear.5 mph44%29.95 "HgN/A
1:50 pm73 °FClear.5 mph47%29.98 "HgN/A
1:20 pm73 °FClear.5 mph50%29.98 "HgN/A
12:50 pm73 °FClear.5 mph47%29.98 "HgN/A
12:20 pm72 °FClear.5 mph53%29.98 "HgN/A
11:50 am72 °FClear.3 mph53%30.01 "HgN/A
11:20 am70 °FClear.3 mph50%30.01 "HgN/A
10:20 am70 °FClear.3 mph60%30.01 "HgN/A
9:20 am68 °FClear.5 mph64%30.01 "HgN/A
8:50 am68 °FSunny.5 mph73%30.01 "Hg10 mi
8:20 am66 °FPassing clouds.5 mph73%30.01 "HgN/A
7:50 am66 °FSunny.5 mph73%30.01 "Hg10 mi
7:20 am66 °FSunny.2 mph78%30.01 "Hg10 mi
6:50 am64 °FSunny.2 mph78%30.04 "Hg10 mi
6:20 am59 °FSunny.3 mph88%30.04 "Hg10 mi
5:50 am59 °FClear.5 mph88%30.04 "HgN/A
5:36 am59 °FSunny.5 mph94%30.04 "Hg10 mi
4:50 am61 °FClear.3 mph83%30.04 "HgN/A
4:20 am61 °FClear.5 mph77%30.07 "HgN/A
3:50 am61 °FClear.2 mph77%30.07 "HgN/A
3:20 am59 °FClear.1 mph82%30.07 "HgN/A
2:50 am59 °FClear.2 mph82%30.07 "HgN/A
2:20 am59 °FClear.3 mph82%30.07 "HgN/A
1:50 am59 °FClear.2 mph82%30.07 "HgN/A
1:20 am59 °FClear.3 mph82%30.09 "HgN/A
12:50 am61 °FClear.2 mph77%30.09 "HgN/A
12:20 am64 °FClear.2 mph73%30.09 "HgN/A
11:50 pm
Fri, Jul 19
64 °FClear.7 mph78%30.09 "HgN/A
11:20 pm64 °FClear.6 mph78%30.09 "HgN/A
10:50 pm64 °FClear.6 mph73%30.09 "HgN/A
10:20 pm66 °FClear.7 mph64%30.09 "HgN/A
9:50 pm66 °FClear.8 mph64%30.09 "HgN/A
9:20 pm66 °FClear.8 mph64%30.09 "HgN/A
8:20 pm68 °FClear.9 mph64%30.09 "HgN/A
7:50 pm68 °FClear.9 mph64%30.12 "HgN/A
7:20 pm68 °FClear.9 mph69%30.12 "HgN/A
6:50 pm70 °FClear.7 mph60%30.12 "HgN/A
6:20 pm70 °FClear.5 mph60%30.12 "HgN/A
Weather by CustomWeather, © 2024

See weather overview